Terminal Aerodrome Forecast
Issued by NWS Portland, OR

Home | Current Version | Previous Version | Text Only | Print | Product List | Glossary On
Versions: 1 2 3 4 5 6 7 8 9 10 11 12 13 14 15 16
000
FTUS46 KPQR 221145 CCA
TAFTTD
TAF COR
KTTD 221145Z 2212/2312 22017G27KT P6SM -RA SCT035 OVC080
     FM221500 22012KT P6SM -SHRA SCT035 OVC060
     FM222000 22008KT P6SM VCSH SCT035 BKN060
     FM230000 VRB03KT P6SM BKN060=

USA.gov is the U.S. government's official web portal to all federal, state and local government web resources and services.